Nearby METAR Reports

 

KSJC - San Jose, California, USA
Distance from station: NE 14km
Updated: 25/06/2024 13:53
Mostly cloudy
Mostly cloudy
 Wind from NNW
Wind: NNW 19 km/h
Temperature: 31°C
Dew Point: 12°C
Humidity: 31%
Barometer: 1011.9 hPa
Clouds: Mostly cloudy
Visibility: 16 km
Cloud details: Few Clouds 2134 m
Partly cloudy 3048 m
Mostly cloudy 4572 m
2024/06/25 20:53 KSJC 252053Z 33010KT 10SM FEW070 SCT100 BKN150 31/12 A2988 RMK AO2 SLP119 VIRGA N-E TCU DSNT NE ACC E T03110122 58001
KNUQ - Moffett Nas/Mtn, California, USA
Distance from station: N 14km
Updated: 25/06/2024 14:15
Clear
Clear
 Wind from NNW
Wind: NNW 20 km/h, Gust: 30 km/h
Temperature: 25°C
Dew Point: 13°C
Humidity: 47%
Barometer: 1012.5 hPa
Clouds: Clear
Visibility: 14 km
2024/06/25 21:15 KNUQ 252115Z AUTO 33011G16KT 9SM CLR 25/13 A2990 RMK AO2
 
KPAO - Palo Alto, California, USA
Distance from station: NNW 23km
Updated: 25/06/2024 13:47
Mostly cloudy
Mostly cloudy
 Wind from NNW
Wind: NNW 20 km/h
Temperature: 26°C
Dew Point: 13°C
Humidity: 45%
Barometer: 1012.9 hPa
Clouds: Mostly cloudy
Visibility: 16 km
Cloud details: Mostly cloudy 6096 m
2024/06/25 20:47 KPAO 252047Z 33011KT 10SM BKN200 26/13 A2991
KRHV - San Jose/Reid, California, USA
Distance from station: ENE 19km
Updated: 25/06/2024 13:47
Mostly cloudy
Mostly cloudy
 Wind from WNW
Wind: WNW 13 km/h
Temperature: 33°C
Dew Point: 9°C
Humidity: 23%
Barometer: 1012.2 hPa
Clouds: Mostly cloudy
Visibility: 16 km
Cloud details: Mostly cloudy 2743 m
2024/06/25 20:47 KRHV 252047Z 30007KT 10SM BKN090 33/09 A2989
 
KOAK - Oakland, California, USA
Distance from station: NNW 50km
Updated: 25/06/2024 13:53
Mostly cloudy
Mostly cloudy
 Wind from WNW
Wind: WNW 28 km/h, Gust: 54 km/h
Temperature: 22°C
Dew Point: 11°C
Humidity: 50%
Barometer: 1013.2 hPa
Clouds: Mostly cloudy
Visibility: 16 km
Cloud details: Partly cloudy 2743 m
Mostly cloudy 3353 m
2024/06/25 20:53 KOAK 252053Z 30015G29KT 10SM SCT090 BKN110 22/11 A2992 RMK AO2 PK WND 31030/2032 SLP131 T02170111 53005
KSQL - San Carlos Airpo, California, USA
Distance from station: NW 34km
Updated: 25/06/2024 13:47
Clear
Clear
 Wind from NNW
Wind: NNW 15 km/h
Temperature: 25°C
Dew Point: 13°C
Humidity: 47%
Barometer: 1012.9 hPa
Clouds: Clear
Visibility: 16 km
2024/06/25 20:47 KSQL 252047Z 34008KT 10SM CLR 25/13 A2991
 
KSFO - San Francisco, California, USA
Distance from station: NW 49km
Updated: 25/06/2024 13:56
Light rain, Mostly cloudy
Light rain, Mostly cloudy
 Wind from NW
Wind: NW 30 km/h, Gust: 44 km/h
Temperature: 17°C
Dew Point: 11°C
Humidity: 68%
Barometer: 1013.2 hPa
Summary: Light rain
Clouds: Mostly cloudy
Visibility: 16 km
Cloud details: Partly cloudy 1036 m
Partly cloudy 3048 m
Mostly cloudy 4267 m
2024/06/25 20:56 KSFO 252056Z 31016G24KT 10SM -RA SCT034 SCT100 BKN140 17/11 A2992 RMK AO2 PK WND 30026/2041 RAB50 SLP130 P0000 60000 T01670111 50004
KE16 - San Martin, California, USA
Distance from station: ESE 43km
Updated: 25/06/2024 14:15
Clear
Clear
 Wind from SSW
Wind: SSW 17 km/h, Gust: 31 km/h
Temperature: 32°C
Dew Point: 5°C
Humidity: 18%
Barometer: 1012.9 hPa
Clouds: Clear
Visibility: 16 km
2024/06/25 21:15 KE16 252115Z AUTO 20009G17KT 10SM CLR 32/05 A2991 RMK AO2 PWINO PNO
 
KWVI - Watsonville, California, USA
Distance from station: SSE 44km
Updated: 25/06/2024 13:53
Clear
Clear
 Wind from WSW
Wind: WSW 13 km/h
Temperature: 24°C
Dew Point: 11°C
Humidity: 44%
Barometer: 1014.6 hPa
Clouds: Clear
Visibility: 16 km
2024/06/25 20:53 KWVI 252053Z AUTO 24007KT 220V290 10SM CLR 24/11 A2996 RMK AO2 SLP145 T02390106 51010
KHAF - Half Moon Bay, California, USA
Distance from station: WNW 50km
Updated: 25/06/2024 14:15
Clear
Clear
 Wind from W
Wind: W 11 km/h
Temperature: 14°C
Dew Point: 12°C
Humidity: 88%
Barometer: 1014.9 hPa
Clouds: Clear
Visibility: 14 km
2024/06/25 21:15 KHAF 252115Z AUTO 26006KT 9SM CLR 14/12 A2997 RMK AO2
 
KHWD - Hayward, California, USA
Distance from station: N 44km
Updated: 25/06/2024 13:54
Clear
Clear
 Wind from WNW
Wind: WNW 26 km/h
Temperature: 26°C
Dew Point: 13°C
Humidity: 45%
Barometer: 1012.9 hPa
Clouds: Clear
Visibility: 16 km
2024/06/25 20:54 KHWD 252054Z 29014KT 10SM CLR 26/13 A2991 RMK AO2 SLP136 T02610128 53005
KLVK - Livermore, California, USA
Distance from station: NNE 51km
Updated: 25/06/2024 13:53
Clear
Clear
 Wind from WNW
Wind: WNW 20 km/h
Temperature: 36°C
Dew Point: -2°C
Humidity: 9%
Barometer: 1011.5 hPa
Clouds: Clear
Visibility: 16 km
2024/06/25 20:53 KLVK 252053Z 30011KT 10SM CLR 36/M02 A2987 RMK AO2 SLP109 T03561017 50000